createdAt,value
2023-05-17T00:00:41.899Z,79.61
2023-05-17T00:01:41.902Z,79.91
2023-05-17T00:02:41.913Z,79.40
2023-05-17T00:03:41.872Z,79.50
2023-05-17T00:04:41.916Z,79.71
2023-05-17T00:05:41.968Z,79.50
2023-05-17T00:06:41.927Z,79.81
2023-05-17T00:07:41.837Z,79.81
2023-05-17T00:08:41.804Z,80.02
2023-05-17T00:09:41.853Z,80.22
2023-05-17T00:10:41.799Z,80.47
2023-05-17T00:11:41.793Z,79.95
2023-05-17T00:12:41.784Z,80.22
2023-05-17T00:13:41.806Z,80.26
2023-05-17T00:14:41.769Z,80.47
2023-05-17T00:15:41.844Z,80.36
2023-05-17T00:16:41.736Z,80.26
2023-05-17T00:17:41.817Z,79.95
2023-05-17T00:18:41.865Z,79.95
2023-05-17T00:19:41.739Z,80.57
2023-05-17T00:20:41.720Z,80.26
2023-05-17T00:21:41.694Z,80.67
2023-05-17T00:22:41.694Z,81.12
2023-05-17T00:23:41.677Z,80.30
2023-05-17T00:24:41.656Z,81.12
2023-05-17T00:25:41.681Z,81.12
2023-05-17T00:26:41.649Z,81.33
2023-05-17T00:27:41.628Z,81.12
2023-05-17T00:28:41.671Z,81.33
2023-05-17T00:29:41.622Z,81.12
2023-05-17T00:30:41.650Z,81.12
2023-05-17T00:31:42.794Z,81.12
2023-05-17T00:32:41.700Z,81.57
2023-05-17T00:33:41.603Z,81.26
2023-05-17T00:34:41.640Z,81.63
2023-05-17T00:35:41.555Z,81.57
2023-05-17T00:36:41.548Z,80.65
2023-05-17T00:37:41.563Z,81.16
2023-05-17T00:38:41.535Z,81.05
2023-05-17T00:39:41.535Z,81.47
2023-05-17T00:40:41.508Z,81.26
2023-05-17T00:41:41.501Z,81.47
2023-05-17T00:42:41.505Z,81.16
2023-05-17T00:43:41.501Z,81.37
2023-05-17T00:44:41.503Z,80.95
2023-05-17T00:45:41.491Z,81.67
2023-05-17T00:46:41.445Z,81.67
2023-05-17T00:47:41.491Z,81.77
2023-05-17T00:48:41.522Z,81.57
2023-05-17T00:49:41.441Z,81.57
2023-05-17T00:50:41.428Z,81.57
2023-05-17T00:51:41.416Z,81.63
2023-05-17T00:52:41.387Z,81.57
2023-05-17T00:53:41.383Z,81.47
2023-05-17T00:54:41.482Z,81.33
2023-05-17T00:55:41.366Z,81.57
2023-05-17T00:56:41.395Z,81.57
2023-05-17T00:57:41.340Z,81.47
2023-05-17T00:58:41.324Z,81.67
2023-05-17T00:59:41.339Z,81.51
2023-05-17T01:00:41.340Z,81.81
2023-05-17T01:01:41.326Z,81.61
2023-05-17T01:02:41.430Z,81.57
2023-05-17T01:03:41.436Z,81.61
2023-05-17T01:04:41.294Z,81.67
2023-05-17T01:05:41.264Z,81.51
2023-05-17T01:06:41.252Z,81.61
2023-05-17T01:07:41.283Z,81.57
2023-05-17T01:08:41.237Z,81.57
2023-05-17T01:09:41.234Z,81.47
2023-05-17T01:10:41.237Z,81.57
2023-05-17T01:11:41.234Z,81.57
2023-05-17T01:12:41.209Z,81.47
2023-05-17T01:13:41.189Z,81.67
2023-05-17T01:14:41.190Z,81.47
2023-05-17T01:15:41.168Z,81.61
2023-05-17T01:16:41.160Z,81.71
2023-05-17T01:17:41.272Z,81.61
2023-05-17T01:18:41.224Z,81.71
2023-05-17T01:19:41.210Z,82.02
2023-05-17T01:20:41.137Z,82.37
2023-05-17T01:21:41.129Z,82.37
2023-05-17T01:22:41.115Z,82.47
2023-05-17T01:23:41.108Z,82.57
2023-05-17T01:24:41.104Z,82.78
2023-05-17T01:25:41.065Z,82.78
2023-05-17T01:26:42.058Z,83.09
2023-05-17T01:27:41.052Z,83.09
2023-05-17T01:28:41.054Z,83.09
2023-05-17T01:29:41.045Z,82.98
2023-05-17T01:30:41.093Z,82.89
2023-05-17T01:31:41.011Z,83.19
2023-05-17T01:32:41.066Z,83.09
2023-05-17T01:33:41.101Z,83.29
2023-05-17T01:34:41.006Z,83.29
2023-05-17T01:35:41.045Z,82.68
2023-05-17T01:36:40.966Z,82.68
2023-05-17T01:37:40.977Z,83.09
2023-05-17T01:38:40.938Z,83.09
2023-05-17T01:39:41.005Z,82.98
2023-05-17T01:40:40.931Z,83.19
2023-05-17T01:41:40.930Z,83.75
2023-05-17T01:42:40.904Z,83.33
2023-05-17T01:43:40.905Z,83.33
2023-05-17T01:44:40.894Z,83.33
2023-05-17T01:45:40.888Z,83.44
2023-05-17T01:46:40.930Z,83.48
2023-05-17T01:47:40.929Z,83.68
2023-05-17T01:48:40.948Z,83.78
2023-05-17T01:49:40.847Z,83.78
2023-05-17T01:50:40.857Z,84.20
2023-05-17T01:51:40.907Z,84.30
2023-05-17T01:52:40.821Z,84.61
2023-05-17T01:53:40.817Z,84.30
2023-05-17T01:54:40.830Z,84.20
2023-05-17T01:55:40.792Z,85.02
2023-05-17T01:56:40.769Z,84.72
2023-05-17T01:57:40.758Z,84.81
2023-05-17T01:58:40.760Z,85.13
2023-05-17T01:59:40.751Z,85.02
2023-05-17T02:00:40.725Z,84.51
2023-05-17T02:01:40.719Z,84.16
2023-05-17T02:02:40.746Z,84.16
2023-05-17T02:03:40.747Z,84.16
2023-05-17T02:04:40.723Z,84.09
2023-05-17T02:05:40.682Z,83.75
2023-05-17T02:06:40.691Z,84.09
2023-05-17T02:07:40.664Z,84.27
2023-05-17T02:08:40.659Z,84.36
2023-05-17T02:09:40.699Z,83.75
2023-05-17T02:10:40.660Z,83.89
2023-05-17T02:11:40.638Z,83.64
2023-05-17T02:12:40.612Z,83.89
2023-05-17T02:13:40.616Z,84.09
2023-05-17T02:14:40.601Z,84.20
2023-05-17T02:15:40.670Z,83.68
2023-05-17T02:16:40.591Z,83.78
2023-05-17T02:17:40.722Z,83.78
2023-05-17T02:18:40.721Z,83.78
2023-05-17T02:19:40.546Z,83.78
2023-05-17T02:20:40.558Z,84.20
2023-05-17T02:21:40.540Z,84.09
2023-05-17T02:22:40.555Z,84.61
2023-05-17T02:23:40.625Z,84.27
2023-05-17T02:24:40.484Z,83.58
2023-05-17T02:25:40.483Z,83.54
2023-05-17T02:26:40.487Z,83.68
2023-05-17T02:27:40.491Z,83.93
2023-05-17T02:28:40.484Z,83.99
2023-05-17T02:29:40.445Z,84.20
2023-05-17T02:30:40.436Z,83.89
2023-05-17T02:31:40.420Z,84.09
2023-05-17T02:32:40.489Z,84.81
2023-05-17T02:33:40.574Z,84.92
2023-05-17T02:34:40.422Z,85.33
2023-05-17T02:35:40.477Z,84.81
2023-05-17T02:36:40.384Z,84.30
2023-05-17T02:37:40.376Z,84.09
2023-05-17T02:38:40.370Z,84.72
2023-05-17T02:39:40.428Z,85.02
2023-05-17T02:40:40.368Z,84.81
2023-05-17T02:41:40.429Z,83.54
2023-05-17T02:42:40.346Z,83.85
2023-05-17T02:43:40.316Z,84.27
2023-05-17T02:44:40.308Z,83.64
2023-05-17T02:45:40.351Z,83.54
2023-05-17T02:46:40.282Z,83.54
2023-05-17T02:47:40.338Z,83.03
2023-05-17T02:48:40.270Z,82.82
2023-05-17T02:49:40.248Z,83.44
2023-05-17T02:50:40.268Z,83.44
2023-05-17T02:51:40.255Z,83.19
2023-05-17T02:52:40.221Z,83.50
2023-05-17T02:53:40.216Z,83.61
2023-05-17T02:54:40.247Z,83.54
2023-05-17T02:55:40.394Z,83.64
2023-05-17T02:56:40.197Z,83.75
2023-05-17T02:57:40.165Z,83.64
2023-05-17T02:58:40.185Z,84.36
2023-05-17T02:59:40.142Z,84.01
2023-05-17T03:00:40.171Z,84.47
2023-05-17T03:01:40.121Z,84.47
2023-05-17T03:02:40.263Z,84.53
2023-05-17T03:03:40.402Z,84.74
2023-05-17T03:04:40.143Z,83.71
2023-05-17T03:05:40.099Z,83.09
2023-05-17T03:06:40.104Z,83.15
2023-05-17T03:07:40.103Z,83.26
2023-05-17T03:08:40.071Z,83.47
2023-05-17T03:09:40.118Z,83.05
2023-05-17T03:10:40.052Z,83.67
2023-05-17T03:11:40.221Z,83.26
2023-05-17T03:12:40.040Z,83.67
2023-05-17T03:13:40.016Z,83.12
2023-05-17T03:14:40.037Z,83.32
2023-05-17T03:15:40.023Z,83.05
2023-05-17T03:16:40.006Z,83.05
2023-05-17T03:17:40.091Z,83.36
2023-05-17T03:18:40.076Z,83.26
2023-05-17T03:19:40.027Z,83.67
2023-05-17T03:20:39.998Z,83.36
2023-05-17T03:21:39.946Z,83.05
2023-05-17T03:22:39.947Z,83.40
2023-05-17T03:23:39.923Z,83.29
2023-05-17T03:24:39.941Z,83.67
2023-05-17T03:25:39.916Z,83.91
2023-05-17T03:26:40.007Z,83.81
2023-05-17T03:27:39.995Z,83.87
2023-05-17T03:28:39.874Z,84.43
2023-05-17T03:29:39.876Z,84.39
2023-05-17T03:30:39.887Z,84.74
2023-05-17T03:31:39.848Z,84.39
2023-05-17T03:32:39.866Z,83.91
2023-05-17T03:33:39.949Z,84.08
2023-05-17T03:34:39.809Z,84.19
2023-05-17T03:35:39.805Z,84.08
2023-05-17T03:36:40.888Z,83.98
2023-05-17T03:37:39.785Z,83.77
2023-05-17T03:38:39.774Z,83.67
2023-05-17T03:39:39.777Z,83.26
2023-05-17T03:40:39.772Z,83.47
2023-05-17T03:41:39.749Z,83.36
2023-05-17T03:42:39.743Z,83.56
2023-05-17T03:43:39.807Z,83.67
2023-05-17T03:44:39.713Z,83.32
2023-05-17T03:45:39.734Z,83.47
2023-05-17T03:46:39.715Z,82.70
2023-05-17T03:47:39.791Z,83.32
2023-05-17T03:48:39.802Z,83.26
2023-05-17T03:49:39.669Z,83.77
2023-05-17T03:50:39.662Z,84.25
2023-05-17T03:51:39.648Z,83.63
2023-05-17T03:52:39.673Z,84.19
2023-05-17T03:53:39.629Z,84.45
2023-05-17T03:54:39.626Z,84.70
2023-05-17T03:55:39.617Z,84.91
2023-05-17T03:56:39.614Z,84.19
2023-05-17T03:57:39.618Z,84.19
2023-05-17T03:58:39.623Z,83.56
2023-05-17T03:59:39.657Z,83.56
2023-05-17T04:00:39.629Z,83.84
2023-05-17T04:01:39.567Z,83.98
2023-05-17T04:02:39.579Z,83.84
2023-05-17T04:03:39.570Z,83.63
2023-05-17T04:04:39.598Z,83.53
2023-05-17T04:05:39.530Z,82.70
2023-05-17T04:06:39.516Z,82.87
2023-05-17T04:07:39.507Z,82.87
2023-05-17T04:08:39.493Z,83.18
2023-05-17T04:09:39.518Z,82.87
2023-05-17T04:10:39.486Z,82.67
2023-05-17T04:11:39.486Z,82.87
2023-05-17T04:12:39.453Z,82.97
2023-05-17T04:13:39.449Z,82.77
2023-05-17T04:14:39.430Z,83.28
2023-05-17T04:15:39.451Z,82.87
2023-05-17T04:16:39.411Z,83.18
2023-05-17T04:17:39.453Z,82.25
2023-05-17T04:18:39.467Z,83.59
2023-05-17T04:19:39.566Z,83.07
2023-05-17T04:20:39.374Z,83.18
2023-05-17T04:21:39.369Z,83.45
2023-05-17T04:22:39.396Z,83.45
2023-05-17T04:23:39.334Z,83.14
2023-05-17T04:24:39.336Z,83.28
2023-05-17T04:25:39.340Z,82.77
2023-05-17T04:26:39.395Z,82.63
2023-05-17T04:27:39.327Z,82.21
2023-05-17T04:28:39.312Z,82.53
2023-05-17T04:29:39.280Z,83.04
2023-05-17T04:30:39.285Z,82.93
2023-05-17T04:31:39.328Z,82.63
2023-05-17T04:32:39.334Z,82.63
2023-05-17T04:33:39.295Z,82.48
2023-05-17T04:34:39.261Z,82.63
2023-05-17T04:35:39.240Z,82.07
2023-05-17T04:36:40.246Z,81.67
2023-05-17T04:37:39.244Z,81.52
2023-05-17T04:38:39.251Z,81.52
2023-05-17T04:39:39.188Z,81.01
2023-05-17T04:40:39.191Z,81.01
2023-05-17T04:41:39.298Z,81.62
2023-05-17T04:42:39.154Z,80.97
2023-05-17T04:43:39.160Z,80.97
2023-05-17T04:44:39.136Z,80.77
2023-05-17T04:45:39.145Z,80.56
2023-05-17T04:46:39.130Z,80.25
2023-05-17T04:48:11.162Z,80.46
2023-05-17T04:48:39.285Z,80.52
2023-05-17T04:49:39.185Z,80.63
2023-05-17T04:50:39.091Z,80.66
2023-05-17T04:51:39.106Z,80.25
2023-05-17T04:52:39.089Z,80.15
2023-05-17T04:53:39.071Z,80.46
2023-05-17T04:54:39.107Z,80.93
2023-05-17T04:55:39.037Z,80.46
2023-05-17T04:56:39.016Z,80.32
2023-05-17T04:57:39.022Z,80.07
2023-05-17T04:58:40.002Z,80.73
2023-05-17T04:59:39.031Z,80.52
2023-05-17T05:00:38.974Z,80.52
2023-05-17T05:01:38.998Z,81.04
2023-05-17T05:02:38.992Z,80.93
2023-05-17T05:03:39.110Z,81.14
2023-05-17T05:04:39.068Z,80.42
2023-05-17T05:05:38.929Z,80.28
2023-05-17T05:06:38.926Z,80.18
2023-05-17T05:07:38.920Z,79.97
2023-05-17T05:08:38.986Z,79.87
2023-05-17T05:09:38.912Z,79.97
2023-05-17T05:10:38.894Z,80.07
2023-05-17T05:11:38.930Z,79.77
2023-05-17T05:12:38.885Z,79.66
2023-05-17T05:13:38.987Z,80.58
2023-05-17T05:14:38.862Z,79.97
2023-05-17T05:15:38.835Z,79.52
2023-05-17T05:16:38.838Z,79.73
2023-05-17T05:17:38.905Z,79.11
2023-05-17T05:18:38.974Z,79.73
2023-05-17T05:19:39.999Z,79.22
2023-05-17T05:20:38.807Z,79.73
2023-05-17T05:21:38.779Z,79.69
2023-05-17T05:22:38.770Z,79.18
2023-05-17T05:23:38.767Z,79.59
2023-05-17T05:24:39.053Z,79.90
2023-05-17T05:25:38.756Z,78.97
2023-05-17T05:26:38.765Z,78.77
2023-05-17T05:27:38.730Z,78.94
2023-05-17T05:28:38.940Z,78.67
2023-05-17T05:29:38.713Z,78.53
2023-05-17T05:30:38.758Z,78.83
2023-05-17T05:31:38.683Z,78.22
2023-05-17T05:32:38.800Z,78.56
2023-05-17T05:33:38.797Z,78.56
2023-05-17T05:34:38.668Z,79.08
2023-05-17T05:35:38.671Z,79.59
2023-05-17T05:36:38.652Z,79.93
2023-05-17T05:37:38.698Z,80.00
2023-05-17T05:38:38.626Z,80.21
2023-05-17T05:39:38.619Z,79.90
2023-05-17T05:40:38.616Z,80.68
2023-05-17T05:41:38.593Z,79.86
2023-05-17T05:42:38.588Z,80.03
2023-05-17T05:43:38.590Z,79.62
2023-05-17T05:44:38.580Z,78.39
2023-05-17T05:45:38.563Z,78.97
2023-05-17T05:46:38.592Z,78.56
2023-05-17T05:47:38.674Z,78.45
2023-05-17T05:48:38.605Z,78.90
2023-05-17T05:49:38.565Z,79.38
2023-05-17T05:50:38.549Z,79.68
2023-05-17T05:51:38.654Z,78.56
2023-05-17T05:52:38.480Z,78.76
2023-05-17T05:53:38.482Z,78.25
2023-05-17T05:54:38.456Z,78.52
2023-05-17T05:55:38.450Z,77.70
2023-05-17T05:56:38.470Z,76.54
2023-05-17T05:57:38.439Z,76.54
2023-05-17T05:58:38.440Z,76.75
2023-05-17T05:59:38.462Z,76.75
2023-05-17T06:00:38.507Z,76.68
2023-05-17T06:01:38.409Z,77.09
2023-05-17T06:02:38.434Z,76.78
2023-05-17T06:03:38.403Z,76.57
2023-05-17T06:04:45.166Z,77.09
2023-05-17T06:05:40.536Z,77.09
2023-05-17T06:06:38.588Z,77.67
2023-05-17T06:07:38.459Z,76.84
2023-05-17T06:08:38.332Z,76.54
2023-05-17T06:09:38.340Z,76.54
2023-05-17T06:10:38.313Z,76.91
2023-05-17T06:11:38.334Z,76.71
2023-05-17T06:12:38.322Z,76.81
2023-05-17T06:13:38.284Z,76.47
2023-05-17T06:14:38.278Z,76.47
2023-05-17T06:15:38.274Z,76.03
2023-05-17T06:16:38.288Z,75.10
2023-05-17T06:17:38.348Z,75.41
2023-05-17T06:18:38.369Z,74.69
2023-05-17T06:19:38.328Z,74.25
2023-05-17T06:20:38.245Z,73.84
2023-05-17T06:21:38.286Z,73.64
2023-05-17T06:22:38.200Z,74.05
2023-05-17T06:23:38.288Z,72.92
2023-05-17T06:24:38.291Z,72.75
2023-05-17T06:25:38.217Z,74.05
2023-05-17T06:26:38.163Z,72.11
2023-05-17T06:27:39.179Z,71.94
2023-05-17T06:28:38.142Z,72.62
2023-05-17T06:29:38.130Z,72.72
2023-05-17T06:30:38.134Z,72.45
2023-05-17T06:31:38.114Z,72.34
2023-05-17T06:32:38.189Z,70.37
2023-05-17T06:33:38.127Z,70.31
2023-05-17T06:34:38.078Z,69.76
2023-05-17T06:35:51.565Z,70.17
2023-05-17T06:36:39.073Z,69.15
2023-05-17T06:37:38.081Z,68.91
2023-05-17T06:38:38.078Z,68.17
2023-05-17T06:39:38.173Z,67.52
2023-05-17T06:40:38.056Z,66.88
2023-05-17T06:41:38.038Z,66.24
2023-05-17T06:42:38.013Z,64.86
2023-05-17T06:43:38.026Z,63.10
2023-05-17T06:44:38.022Z,62.59
2023-05-17T06:45:37.990Z,61.47
2023-05-17T06:46:37.976Z,61.81
2023-05-17T06:47:38.053Z,60.71
2023-05-17T06:48:38.052Z,57.60
2023-05-17T06:49:37.956Z,55.36
2023-05-17T06:50:38.007Z,55.55
2023-05-17T06:51:37.915Z,56.67
2023-05-17T06:52:37.926Z,58.27
2023-05-17T06:53:37.891Z,58.86
2023-05-17T06:54:37.892Z,59.66
2023-05-17T06:55:37.863Z,62.56
2023-05-17T06:56:37.865Z,63.41
2023-05-17T06:57:37.905Z,63.71
2023-05-17T06:58:37.853Z,64.53
2023-05-17T06:59:38.446Z,63.35
2023-05-17T07:00:37.837Z,61.82
2023-05-17T07:01:37.988Z,61.21
2023-05-17T07:02:37.963Z,61.20
2023-05-17T07:03:37.865Z,60.28
2023-05-17T07:04:37.812Z,56.92
2023-05-17T07:05:37.810Z,54.97
2023-05-17T07:06:37.804Z,52.14
2023-05-17T07:07:37.760Z,50.52
2023-05-17T07:08:37.730Z,48.26
2023-05-17T07:09:38.756Z,48.90
2023-05-17T07:10:37.739Z,51.37
2023-05-17T07:11:37.837Z,53.47
2023-05-17T07:12:37.741Z,53.22
2023-05-17T07:13:37.740Z,50.80
2023-05-17T07:14:37.706Z,48.73
2023-05-17T07:15:37.720Z,48.85
2023-05-17T07:16:37.665Z,48.88
2023-05-17T07:17:37.760Z,50.21
2023-05-17T07:18:37.718Z,48.61
2023-05-17T07:19:37.767Z,48.26
2023-05-17T07:20:37.649Z,47.60
2023-05-17T07:21:37.670Z,48.99
2023-05-17T07:22:37.621Z,49.89
2023-05-17T07:23:37.594Z,49.81
2023-05-17T07:24:37.633Z,52.23
2023-05-17T07:25:37.590Z,51.98
2023-05-17T07:26:37.582Z,54.49
2023-05-17T07:27:37.707Z,55.45
2023-05-17T07:28:37.600Z,55.99
2023-05-17T07:29:37.659Z,56.73
2023-05-17T07:30:37.664Z,56.85
2023-05-17T07:31:37.506Z,55.91
2023-05-17T07:32:37.676Z,55.91
2023-05-17T07:33:37.621Z,56.82
2023-05-17T07:34:37.708Z,56.70
2023-05-17T07:35:37.706Z,55.38
2023-05-17T07:36:37.503Z,55.27
2023-05-17T07:37:37.450Z,55.58
2023-05-17T07:38:37.439Z,55.66
2023-05-17T07:39:37.444Z,54.24
2023-05-17T07:40:37.486Z,55.48
2023-05-17T07:41:37.421Z,54.59
2023-05-17T07:42:37.426Z,55.51
2023-05-17T07:43:37.492Z,54.49
2023-05-17T07:44:37.403Z,55.33
2023-05-17T07:45:37.388Z,55.66
2023-05-17T07:46:38.420Z,53.37
2023-05-17T07:47:37.421Z,52.03
2023-05-17T07:48:37.476Z,53.45
2023-05-17T07:49:37.362Z,51.02
2023-05-17T07:50:37.373Z,49.50
2023-05-17T07:51:37.382Z,49.66
2023-05-17T07:52:37.347Z,45.70
2023-05-17T07:53:37.304Z,44.35
2023-05-17T07:54:37.312Z,43.88
2023-05-17T07:55:37.328Z,44.53
2023-05-17T07:56:37.319Z,46.64
2023-05-17T07:57:37.278Z,47.43
2023-05-17T07:58:37.316Z,48.41
2023-05-17T07:59:37.249Z,48.55
2023-05-17T08:00:37.450Z,50.40
2023-05-17T08:01:37.232Z,50.98
2023-05-17T08:02:37.259Z,52.35
2023-05-17T08:03:37.224Z,53.42
2023-05-17T08:04:37.248Z,53.88
2023-05-17T08:05:37.265Z,55.00
2023-05-17T08:06:37.168Z,55.02
2023-05-17T08:07:37.188Z,54.74
2023-05-17T08:08:37.155Z,54.90
2023-05-17T08:09:37.157Z,53.80
2023-05-17T08:10:37.283Z,51.46
2023-05-17T08:11:37.982Z,48.86
2023-05-17T08:12:37.125Z,49.29
2023-05-17T08:13:37.506Z,47.42
2023-05-17T08:14:37.100Z,47.50
2023-05-17T08:15:37.154Z,45.99
2023-05-17T08:16:37.080Z,45.65
2023-05-17T08:17:37.127Z,43.28
2023-05-17T08:18:37.199Z,42.35
2023-05-17T08:19:37.263Z,41.61
2023-05-17T08:20:37.034Z,42.15
2023-05-17T08:21:37.035Z,40.84
2023-05-17T08:22:37.033Z,41.99
2023-05-17T08:23:37.012Z,42.72
2023-05-17T08:24:37.037Z,45.73
2023-05-17T08:25:37.024Z,46.75
2023-05-17T08:26:37.009Z,47.58
2023-05-17T08:27:36.972Z,46.28
2023-05-17T08:28:37.031Z,47.80
2023-05-17T08:29:38.894Z,49.32
2023-05-17T08:30:36.945Z,46.48
2023-05-17T08:31:36.946Z,48.86
2023-05-17T08:32:36.994Z,49.29
2023-05-17T08:33:36.988Z,50.20
2023-05-17T08:34:37.902Z,51.01
2023-05-17T08:35:36.909Z,50.20
2023-05-17T08:36:36.958Z,51.62
2023-05-17T08:37:36.896Z,47.28
2023-05-17T08:38:36.870Z,48.40
2023-05-17T08:39:36.920Z,45.59
2023-05-17T08:40:36.868Z,45.73
2023-05-17T08:41:36.877Z,42.84
2023-05-17T08:42:36.814Z,42.68
2023-05-17T08:43:36.808Z,43.02
2023-05-17T08:44:36.831Z,42.18
2023-05-17T08:45:36.783Z,39.74
2023-05-17T08:46:36.789Z,38.25
2023-05-17T08:47:36.921Z,39.14
2023-05-17T08:48:36.894Z,38.83
2023-05-17T08:49:37.381Z,39.43
2023-05-17T08:50:36.738Z,39.80
2023-05-17T08:51:36.757Z,37.79
2023-05-17T08:52:36.730Z,39.00
2023-05-17T08:53:36.718Z,38.85
2023-05-17T08:54:36.717Z,38.25
2023-05-17T08:55:36.741Z,39.43
2023-05-17T08:56:36.670Z,40.66
2023-05-17T08:57:36.690Z,37.56
2023-05-17T08:58:48.087Z,38.28
2023-05-17T08:59:37.667Z,37.65
2023-05-17T09:00:36.644Z,36.94
2023-05-17T09:01:36.661Z,37.87
2023-05-17T09:02:36.688Z,37.87
2023-05-17T09:03:36.693Z,39.56
2023-05-17T09:04:36.622Z,39.48
2023-05-17T09:05:36.634Z,40.22
2023-05-17T09:06:36.595Z,41.27
2023-05-17T09:07:36.604Z,42.23
2023-05-17T09:08:36.563Z,44.05
2023-05-17T09:09:36.551Z,42.69
2023-05-17T09:10:36.537Z,45.25
2023-05-17T09:11:36.557Z,45.55
2023-05-17T09:12:36.537Z,44.90
2023-05-17T09:13:36.520Z,44.48
2023-05-17T09:14:36.499Z,45.26
2023-05-17T09:15:36.493Z,42.78
2023-05-17T09:16:36.497Z,42.82
2023-05-17T09:17:36.539Z,43.04
2023-05-17T09:18:36.576Z,43.85
2023-05-17T09:19:36.607Z,44.17
2023-05-17T09:20:36.453Z,44.05
2023-05-17T09:21:36.450Z,43.30
2023-05-17T09:22:36.437Z,42.25
2023-05-17T09:23:36.409Z,42.41
2023-05-17T09:24:36.445Z,41.91
2023-05-17T09:25:36.395Z,43.34
2023-05-17T09:26:36.389Z,42.98
2023-05-17T09:27:36.384Z,42.49
2023-05-17T09:28:36.351Z,42.27
2023-05-17T09:29:36.355Z,43.40
2023-05-17T09:30:36.336Z,42.84
2023-05-17T09:31:36.349Z,42.68
2023-05-17T09:32:36.363Z,43.23
2023-05-17T09:33:36.344Z,44.42
2023-05-17T09:34:36.326Z,42.66
2023-05-17T09:35:36.304Z,41.93
2023-05-17T09:36:36.278Z,42.82
2023-05-17T09:37:36.261Z,41.79
2023-05-17T09:38:36.306Z,40.94
2023-05-17T09:39:36.271Z,40.50
2023-05-17T09:40:36.256Z,39.90
2023-05-17T09:41:36.235Z,41.83
2023-05-17T09:42:36.219Z,40.70
2023-05-17T09:43:36.223Z,42.76
2023-05-17T09:44:36.201Z,42.55
2023-05-17T09:45:36.224Z,41.39
2023-05-17T09:46:36.185Z,41.61
2023-05-17T09:47:36.223Z,42.38
2023-05-17T09:48:36.202Z,43.10
2023-05-17T09:49:36.178Z,43.23
2023-05-17T09:50:36.151Z,43.43
2023-05-17T09:51:36.150Z,43.37
2023-05-17T09:52:36.131Z,43.95
2023-05-17T09:53:36.124Z,45.49
2023-05-17T09:54:36.115Z,45.31
2023-05-17T09:55:36.757Z,46.30
2023-05-17T09:56:36.129Z,45.29
2023-05-17T09:57:36.088Z,44.49
2023-05-17T09:58:36.077Z,45.61
2023-05-17T09:59:36.068Z,44.84
2023-05-17T10:00:36.049Z,45.83
2023-05-17T10:01:36.026Z,43.57
2023-05-17T10:02:36.226Z,43.24
2023-05-17T10:03:36.085Z,43.73
2023-05-17T10:04:36.043Z,43.10
2023-05-17T10:05:36.119Z,43.60
2023-05-17T10:06:45.216Z,42.13
2023-05-17T10:07:37.007Z,43.93
2023-05-17T10:08:35.955Z,44.54
2023-05-17T10:09:36.030Z,44.44
2023-05-17T10:10:35.949Z,44.44
2023-05-17T10:11:35.944Z,44.32
2023-05-17T10:12:35.932Z,44.88
2023-05-17T10:13:35.946Z,44.86
2023-05-17T10:14:35.930Z,43.43
2023-05-17T10:15:35.965Z,42.23
2023-05-17T10:16:35.880Z,43.02
2023-05-17T10:17:36.008Z,42.49
2023-05-17T10:18:35.969Z,43.16
2023-05-17T10:19:35.930Z,44.05
2023-05-17T10:20:35.877Z,41.53
2023-05-17T10:21:35.840Z,41.81
2023-05-17T10:22:35.855Z,40.54
2023-05-17T10:23:35.844Z,41.20
2023-05-17T10:24:35.819Z,42.41
2023-05-17T10:25:35.813Z,42.76
2023-05-17T10:26:35.813Z,44.90
2023-05-17T10:27:35.810Z,46.12
2023-05-17T10:28:35.779Z,45.49
2023-05-17T10:29:35.788Z,44.40
2023-05-17T10:30:35.823Z,45.20
2023-05-17T10:31:35.745Z,46.60
2023-05-17T10:32:35.797Z,45.39
2023-05-17T10:33:35.820Z,44.49
2023-05-17T10:34:35.707Z,43.51
2023-05-17T10:35:35.733Z,44.12
2023-05-17T10:36:35.740Z,45.12
2023-05-17T10:37:35.691Z,45.51
2023-05-17T10:38:42.568Z,46.70
2023-05-17T10:39:36.689Z,44.76
2023-05-17T10:40:35.669Z,44.84
2023-05-17T10:41:35.644Z,44.42
2023-05-17T10:42:35.649Z,43.43
2023-05-17T10:43:35.643Z,43.83
2023-05-17T10:44:35.644Z,42.33
2023-05-17T10:45:35.617Z,43.77
2023-05-17T10:46:35.611Z,43.00
2023-05-17T10:47:35.702Z,43.00
2023-05-17T10:49:07.569Z,43.20
2023-05-17T10:49:35.607Z,43.41
2023-05-17T10:50:35.592Z,43.12
2023-05-17T10:51:35.568Z,43.10
2023-05-17T10:52:35.572Z,42.90
2023-05-17T10:53:35.534Z,42.78
2023-05-17T10:54:35.538Z,43.87
2023-05-17T10:55:35.603Z,42.23
2023-05-17T10:56:35.537Z,42.43
2023-05-17T10:57:49.736Z,43.73
2023-05-17T10:58:36.495Z,41.32
2023-05-17T10:59:35.474Z,42.03
2023-05-17T11:00:35.461Z,40.95
2023-05-17T11:01:35.471Z,42.72
2023-05-17T11:02:35.540Z,42.80
2023-05-17T11:03:35.424Z,41.40
2023-05-17T11:04:35.501Z,42.31
2023-05-17T11:05:35.494Z,43.73
2023-05-17T11:06:35.435Z,42.92
2023-05-17T11:07:35.413Z,42.61
2023-05-17T11:08:35.392Z,42.84
2023-05-17T11:09:35.385Z,42.94
2023-05-17T11:10:35.404Z,44.95
2023-05-17T11:11:35.358Z,42.49
2023-05-17T11:12:37.319Z,43.38
2023-05-17T11:13:35.355Z,43.14
2023-05-17T11:14:35.326Z,44.05
2023-05-17T11:15:35.349Z,43.34
2023-05-17T11:16:35.302Z,44.15
2023-05-17T11:17:35.390Z,44.76
2023-05-17T11:18:38.993Z,42.78
2023-05-17T11:19:36.394Z,45.20
2023-05-17T11:20:36.020Z,45.51
2023-05-17T11:21:35.295Z,44.49
2023-05-17T11:22:35.255Z,44.88
2023-05-17T11:23:35.285Z,44.35
2023-05-17T11:24:35.248Z,44.68
2023-05-17T11:25:35.239Z,45.69
2023-05-17T11:26:35.223Z,43.49
2023-05-17T11:27:35.241Z,43.91
2023-05-17T11:28:35.228Z,45.41
2023-05-17T11:29:35.589Z,44.42
2023-05-17T11:30:35.204Z,44.68
2023-05-17T11:31:35.173Z,43.46
2023-05-17T11:32:35.275Z,43.87
2023-05-17T11:33:35.306Z,43.77
2023-05-17T11:34:35.268Z,44.20
2023-05-17T11:35:35.153Z,43.29
2023-05-17T11:36:35.141Z,44.58
2023-05-17T11:37:35.108Z,43.24
2023-05-17T11:38:35.118Z,42.98
2023-05-17T11:39:35.085Z,43.20
2023-05-17T11:40:35.064Z,42.68
2023-05-17T11:41:35.099Z,43.91
2023-05-17T11:42:35.111Z,44.70
2023-05-17T11:43:35.060Z,45.16
2023-05-17T11:44:35.123Z,42.21
2023-05-17T11:45:35.029Z,42.98
2023-05-17T11:46:35.051Z,40.17
2023-05-17T11:47:35.235Z,41.39
2023-05-17T11:48:35.186Z,42.76
2023-05-17T11:49:36.667Z,43.87
2023-05-17T11:50:34.983Z,40.76
2023-05-17T11:51:34.994Z,41.18
2023-05-17T11:52:34.984Z,42.61
2023-05-17T11:53:34.965Z,42.43
2023-05-17T11:54:34.932Z,42.47
2023-05-17T11:55:34.930Z,44.07
2023-05-17T11:56:42.714Z,42.88
2023-05-17T11:57:38.301Z,42.88
2023-05-17T11:58:34.899Z,42.69
2023-05-17T11:59:34.890Z,41.26
2023-05-17T12:00:34.905Z,42.61
2023-05-17T12:01:34.881Z,42.78
2023-05-17T12:02:34.895Z,41.08
2023-05-17T12:03:34.876Z,42.19
2023-05-17T12:04:34.898Z,42.69
2023-05-17T12:05:34.836Z,42.96
2023-05-17T12:06:34.899Z,42.23
2023-05-17T12:07:34.830Z,40.52
2023-05-17T12:08:34.839Z,40.84
2023-05-17T12:09:34.823Z,41.56
2023-05-17T12:10:35.274Z,41.66
2023-05-17T12:11:34.775Z,40.53
2023-05-17T12:12:34.776Z,40.84
2023-05-17T12:13:34.765Z,43.85
2023-05-17T12:14:34.778Z,42.74
2023-05-17T12:15:34.731Z,42.13
2023-05-17T12:16:34.772Z,42.25
2023-05-17T12:17:34.788Z,42.25
2023-05-17T12:18:34.812Z,43.14
2023-05-17T12:19:34.782Z,42.43
2023-05-17T12:20:34.731Z,42.43
2023-05-17T12:21:34.725Z,42.94
2023-05-17T12:22:34.667Z,43.65
2023-05-17T12:23:34.664Z,41.89
2023-05-17T12:24:34.695Z,44.31
2023-05-17T12:25:34.650Z,42.90
2023-05-17T12:26:34.694Z,43.20
2023-05-17T12:27:34.624Z,41.69
2023-05-17T12:28:34.605Z,40.19
2023-05-17T12:29:34.594Z,41.44
2023-05-17T12:30:34.600Z,41.66
2023-05-17T12:31:34.616Z,42.37
2023-05-17T12:32:34.638Z,41.87
2023-05-17T12:33:34.598Z,40.94
2023-05-17T12:34:34.579Z,41.87
2023-05-17T12:35:34.541Z,41.77
2023-05-17T12:36:34.567Z,41.85
2023-05-17T12:37:34.514Z,42.54
2023-05-17T12:38:34.519Z,41.02
2023-05-17T12:39:34.537Z,40.53
2023-05-17T12:40:34.519Z,39.91
2023-05-17T12:41:34.485Z,41.83
2023-05-17T12:42:34.501Z,40.30
2023-05-17T12:43:34.510Z,40.86
2023-05-17T12:44:34.481Z,40.88
2023-05-17T12:45:34.436Z,40.56
2023-05-17T12:46:34.476Z,39.97
2023-05-17T12:47:34.502Z,39.99
2023-05-17T12:48:34.456Z,41.91
2023-05-17T12:49:34.404Z,42.82
2023-05-17T12:50:34.404Z,41.42
2023-05-17T12:51:34.393Z,41.26
2023-05-17T12:52:34.412Z,41.08